createdAt,value
2018-06-25T08:44:01.508Z,73.90
2018-06-25T08:46:30.368Z,73.60
2018-06-25T08:48:59.472Z,73.50
2018-06-25T08:51:28.349Z,72.60
2018-06-25T08:53:57.748Z,73.60
2018-06-25T08:56:26.676Z,72.70
2018-06-25T08:58:55.536Z,72.30
2018-06-25T09:01:24.498Z,72.40
2018-06-25T09:03:53.336Z,72.60
2018-06-25T09:06:22.249Z,72.00
2018-06-25T09:08:51.526Z,71.50
2018-06-25T09:11:20.395Z,71.30
2018-06-25T09:13:49.388Z,71.60
2018-06-25T09:16:18.223Z,71.50
2018-06-25T09:18:47.173Z,70.80
2018-06-25T09:21:16.075Z,70.10
2018-06-25T09:23:44.966Z,69.50
2018-06-25T09:26:13.884Z,69.50
2018-06-25T09:28:42.774Z,69.80
2018-06-25T09:31:11.671Z,69.10
2018-06-25T09:33:40.635Z,68.90
2018-06-25T09:36:09.440Z,69.00
2018-06-25T09:38:38.209Z,67.70
2018-06-25T09:41:07.097Z,66.90
2018-06-25T09:43:36.142Z,67.70
2018-06-25T09:46:05.414Z,66.50
2018-06-25T09:48:34.637Z,65.80
2018-06-25T09:51:03.500Z,65.70
2018-06-25T09:53:32.375Z,66.10
2018-06-25T09:56:01.271Z,66.10
2018-06-25T09:58:30.116Z,65.60
2018-06-25T10:01:05.448Z,65.50
2018-06-25T10:03:34.349Z,65.30
2018-06-25T10:06:03.354Z,64.60
2018-06-25T10:08:32.345Z,65.70
2018-06-25T10:11:01.388Z,65.70
2018-06-25T10:13:30.502Z,64.50
2018-06-25T10:15:59.659Z,64.60
2018-06-25T10:18:28.593Z,65.10
2018-06-25T10:20:57.513Z,64.80
2018-06-25T10:23:26.743Z,64.20
2018-06-25T10:25:55.766Z,64.30
2018-06-25T10:28:24.683Z,64.10
2018-06-25T10:30:53.474Z,64.70
2018-06-25T10:33:22.529Z,63.80
2018-06-25T10:35:51.365Z,63.20
2018-06-25T10:38:28.392Z,64.00
2018-06-25T10:40:57.426Z,63.60
2018-06-25T10:45:54.398Z,63.20
2018-06-25T10:50:51.410Z,62.70
2018-06-25T10:53:20.415Z,62.30
2018-06-25T10:55:49.416Z,61.30
2018-06-25T10:58:18.334Z,61.30
2018-06-25T11:03:15.674Z,62.30
2018-06-25T11:05:45.964Z,62.60
2018-06-25T11:08:14.930Z,62.10
2018-06-25T11:10:43.927Z,62.00
2018-06-25T11:13:12.672Z,62.00
2018-06-25T11:15:41.550Z,62.10
2018-06-25T11:18:10.364Z,61.00
2018-06-25T11:20:39.860Z,61.60
2018-06-25T11:23:08.581Z,61.00
2018-06-25T11:25:37.416Z,61.10
2018-06-25T11:28:06.886Z,61.40
2018-06-25T11:30:35.711Z,61.00
2018-06-25T11:33:04.751Z,60.50
2018-06-25T11:35:33.517Z,60.60
2018-06-25T11:38:02.533Z,61.10
2018-06-25T11:40:31.511Z,60.30
2018-06-25T11:43:00.324Z,60.10
2018-06-25T11:47:58.099Z,59.60
2018-06-25T11:50:26.988Z,60.10
2018-06-25T11:52:55.995Z,58.30
2018-06-25T11:55:24.748Z,58.50
2018-06-25T11:57:53.569Z,58.40
2018-06-25T12:00:22.510Z,58.00
2018-06-25T12:05:48.888Z,56.70
2018-06-25T12:08:17.914Z,56.90
2018-06-25T12:10:47.138Z,55.90
2018-06-25T12:13:16.058Z,56.10
2018-06-25T12:15:45.044Z,56.30
2018-06-25T12:18:14.267Z,56.70
2018-06-25T12:20:43.084Z,57.10
2018-06-25T12:23:11.813Z,55.60
2018-06-25T12:25:40.821Z,54.90
2018-06-25T12:28:09.441Z,55.20
2018-06-25T12:33:07.290Z,54.60
2018-06-25T12:35:36.275Z,55.00
2018-06-25T12:38:05.373Z,54.40
2018-06-25T12:40:34.202Z,52.20
2018-06-25T12:43:02.973Z,53.50
2018-06-25T12:45:32.225Z,52.40
2018-06-25T12:48:01.350Z,52.90
2018-06-25T12:50:30.227Z,53.00
2018-06-25T12:52:59.337Z,51.60
2018-06-25T12:55:28.219Z,52.80
2018-06-25T12:57:57.245Z,52.60
2018-06-25T13:00:26.343Z,51.70
2018-06-25T13:02:55.328Z,50.20
2018-06-25T13:05:25.400Z,49.40
2018-06-25T13:07:54.188Z,51.90
2018-06-25T13:10:23.125Z,51.60
2018-06-25T13:12:52.005Z,50.90
2018-06-25T13:15:21.315Z,49.00
2018-06-25T13:17:50.292Z,48.80
2018-06-25T13:20:19.488Z,48.60
2018-06-25T13:22:48.547Z,47.10
2018-06-25T13:25:17.475Z,47.90
2018-06-25T13:27:46.616Z,47.90
2018-06-25T13:30:15.485Z,47.90
2018-06-25T13:32:49.737Z,48.10
2018-06-25T13:37:47.059Z,46.70
2018-06-25T13:40:16.295Z,47.50
2018-06-25T13:42:45.309Z,47.00
2018-06-25T13:45:14.237Z,46.80
2018-06-25T13:47:43.144Z,47.00
2018-06-25T13:50:12.046Z,46.60
2018-06-25T13:52:41.021Z,45.20
2018-06-25T13:55:10.304Z,46.40
2018-06-25T13:57:39.487Z,45.70
2018-06-25T14:00:08.776Z,46.30
2018-06-25T14:02:54.139Z,46.20
2018-06-25T14:05:23.038Z,46.00
2018-06-25T14:07:52.265Z,46.00
2018-06-25T14:10:21.180Z,46.40
2018-06-25T14:12:50.222Z,45.60
2018-06-25T14:15:19.143Z,45.10
2018-06-25T14:17:47.938Z,46.10
2018-06-25T14:20:16.957Z,46.00
2018-06-25T14:22:45.951Z,47.70
2018-06-25T14:25:15.193Z,47.60
2018-06-25T14:27:49.402Z,48.60
2018-06-25T14:30:23.301Z,47.90
2018-06-25T14:33:09.706Z,48.60
2018-06-25T14:35:38.803Z,48.60
2018-06-25T14:38:07.776Z,48.50
2018-06-25T14:40:36.757Z,49.60
2018-06-25T14:43:05.976Z,49.60
2018-06-25T14:45:34.746Z,49.90
2018-06-25T14:48:03.776Z,49.80
2018-06-25T14:50:32.538Z,50.20
2018-06-25T14:53:01.670Z,50.20
2018-06-25T14:55:30.760Z,50.20
2018-06-25T14:57:59.624Z,50.60
2018-06-25T15:00:34.376Z,51.80
2018-06-25T15:03:03.175Z,51.40
2018-06-25T15:05:31.900Z,51.90
2018-06-25T15:08:00.853Z,51.80
2018-06-25T15:10:29.714Z,51.80
2018-06-25T15:12:59.220Z,52.30
2018-06-25T15:15:30.192Z,51.30
2018-06-25T15:17:59.047Z,52.90
2018-06-25T15:20:28.024Z,52.70
2018-06-25T15:22:56.812Z,52.10
2018-06-25T15:25:25.622Z,53.30
2018-06-25T15:27:54.494Z,54.60
2018-06-25T15:30:23.478Z,53.90
2018-06-25T15:32:52.380Z,53.70
2018-06-25T15:35:29.094Z,54.30
2018-06-25T15:37:58.403Z,55.30
2018-06-25T15:40:27.238Z,54.60
2018-06-25T15:42:56.159Z,54.40
2018-06-25T15:45:29.616Z,55.80
2018-06-25T15:47:58.588Z,55.90
2018-06-25T15:50:27.353Z,55.40
2018-06-25T15:53:08.835Z,56.10
2018-06-25T15:56:06.244Z,57.50
2018-06-25T15:58:35.264Z,55.90
2018-06-25T16:01:04.347Z,56.60
2018-06-25T16:03:33.250Z,56.30
2018-06-25T16:06:02.169Z,56.60
2018-06-25T16:08:31.064Z,57.40
2018-06-25T16:10:59.923Z,58.00
2018-06-25T16:13:30.347Z,56.70
2018-06-25T16:15:59.372Z,57.40
2018-06-25T16:18:28.320Z,58.10
2018-06-25T16:20:57.540Z,58.20
2018-06-25T16:23:26.338Z,57.70
2018-06-25T16:25:55.123Z,57.80
2018-06-25T16:28:24.220Z,58.90
2018-06-25T16:30:53.207Z,58.00
2018-06-25T16:33:22.192Z,58.30
2018-06-25T16:35:50.986Z,59.30
2018-06-25T16:38:21.298Z,60.40
2018-06-25T16:40:50.214Z,59.40
2018-06-25T16:43:19.234Z,59.30
2018-06-25T16:45:48.202Z,59.90
2018-06-25T16:48:17.166Z,59.50
2018-06-25T16:50:52.019Z,59.80
2018-06-25T16:53:44.074Z,60.70
2018-06-25T16:56:13.479Z,61.00
2018-06-25T16:58:42.556Z,61.10
2018-06-25T17:01:15.634Z,60.80
2018-06-25T17:06:47.841Z,61.40
2018-06-25T17:09:29.890Z,61.20
2018-06-25T17:11:58.711Z,63.10
2018-06-25T17:17:22.516Z,62.50
2018-06-25T17:19:52.218Z,62.50
2018-06-25T17:22:22.651Z,63.10
2018-06-25T17:24:53.309Z,62.60
2018-06-25T17:27:28.203Z,62.30
2018-06-25T17:29:57.445Z,63.50
2018-06-25T17:32:26.289Z,63.20
2018-06-25T17:34:55.570Z,63.60
2018-06-25T17:37:25.089Z,63.50
2018-06-25T17:39:53.981Z,64.10
2018-06-25T17:42:26.156Z,65.50
2018-06-25T17:44:55.203Z,65.70
2018-06-25T17:47:28.791Z,65.80
2018-06-25T17:50:10.757Z,64.50
2018-06-25T17:52:53.411Z,65.40
2018-06-25T17:55:42.167Z,65.90
2018-06-25T17:58:16.612Z,65.00
2018-06-25T18:00:51.319Z,66.30
2018-06-25T18:03:38.335Z,65.60
2018-06-25T18:06:14.624Z,66.00
2018-06-25T18:08:43.559Z,65.70
2018-06-25T18:11:18.618Z,65.60
2018-06-25T18:14:05.948Z,65.60
2018-06-25T18:19:27.993Z,67.40
2018-06-25T18:21:57.371Z,67.10
2018-06-25T18:24:31.835Z,67.80
2018-06-25T18:27:00.937Z,67.10
2018-06-25T18:29:30.047Z,66.30
2018-06-25T18:31:59.255Z,67.10
2018-06-25T18:34:28.395Z,67.40
2018-06-25T18:36:57.920Z,68.10
2018-06-25T18:39:27.205Z,67.20
2018-06-25T18:41:56.308Z,67.30
2018-06-25T18:44:29.448Z,66.40
2018-06-25T18:46:58.272Z,68.00
2018-06-25T18:49:27.853Z,68.60
2018-06-25T18:51:57.214Z,68.50
2018-06-25T18:54:26.730Z,67.70
2018-06-25T18:56:56.307Z,67.80
2018-06-25T18:59:25.794Z,69.10
2018-06-25T19:02:00.658Z,68.80
2018-06-25T19:04:32.209Z,69.60
2018-06-25T19:07:17.082Z,69.30
2018-06-25T19:09:47.559Z,69.80
2018-06-25T19:12:16.425Z,69.60
2018-06-25T19:14:45.931Z,69.30
2018-06-25T19:17:25.806Z,69.30
2018-06-25T19:19:55.095Z,69.30
2018-06-25T19:22:28.512Z,68.50
2018-06-25T19:25:01.430Z,70.10
2018-06-25T19:27:30.267Z,70.00
2018-06-25T19:29:59.468Z,70.10
2018-06-25T19:32:28.619Z,70.70
2018-06-25T19:34:57.872Z,70.40
2018-06-25T19:37:27.141Z,70.40
2018-06-25T19:39:56.250Z,70.20
2018-06-25T19:42:25.408Z,69.80
2018-06-25T19:47:22.345Z,70.00
2018-06-25T19:49:51.300Z,69.70
2018-06-25T19:52:20.411Z,70.00
2018-06-25T19:54:49.441Z,70.00
2018-06-25T19:57:23.263Z,69.90
2018-06-25T20:02:33.322Z,70.40
2018-06-25T20:05:02.199Z,70.30
2018-06-25T20:07:32.280Z,70.30
2018-06-25T20:10:01.284Z,70.50
2018-06-25T20:12:33.646Z,70.00
2018-06-25T20:15:02.999Z,69.60
2018-06-25T20:17:37.728Z,69.70
2018-06-25T20:20:08.292Z,70.30
2018-06-25T20:22:37.446Z,70.20
2018-06-25T20:25:07.585Z,70.00
2018-06-25T20:27:36.602Z,69.90
2018-06-25T20:30:06.412Z,70.40
2018-06-25T20:32:35.644Z,70.00
2018-06-25T20:35:04.571Z,70.70
2018-06-25T20:37:33.445Z,71.30
2018-06-25T20:40:02.591Z,70.30
2018-06-25T20:42:48.013Z,70.40
2018-06-25T20:45:16.941Z,70.20
2018-06-25T20:47:46.034Z,69.50
2018-06-25T20:50:14.882Z,70.20
2018-06-25T20:52:43.879Z,70.30
2018-06-25T20:55:12.984Z,70.20
2018-06-25T20:57:41.959Z,70.30
2018-06-25T21:00:11.002Z,70.40
2018-06-25T21:05:08.690Z,70.80
2018-06-25T21:10:06.714Z,71.00
2018-06-25T21:12:35.714Z,71.00
2018-06-25T21:15:08.482Z,71.60
2018-06-25T21:17:37.807Z,71.60
2018-06-25T21:20:20.665Z,71.20
2018-06-25T21:22:49.517Z,71.30
2018-06-25T21:25:18.845Z,72.10
2018-06-25T21:27:47.911Z,72.80
2018-06-25T21:30:17.159Z,72.90
2018-06-25T21:35:14.585Z,72.90
2018-06-25T21:37:47.583Z,72.50
2018-06-25T21:40:16.772Z,71.80
2018-06-25T21:42:45.906Z,72.40
2018-06-25T21:45:16.002Z,73.00
2018-06-25T21:50:13.263Z,72.70
2018-06-25T21:52:42.154Z,72.40
2018-06-25T21:55:11.153Z,72.50
2018-06-25T21:57:40.084Z,72.30
2018-06-25T22:05:08.136Z,74.10
2018-06-25T22:07:37.237Z,73.80
2018-06-25T22:10:06.618Z,73.40
2018-06-25T22:12:35.325Z,72.90
2018-06-25T22:15:04.376Z,73.50
2018-06-25T22:17:33.228Z,73.40
2018-06-25T22:20:02.457Z,74.00
2018-06-25T22:22:31.624Z,74.10
2018-06-25T22:25:00.619Z,74.40
2018-06-25T22:27:29.770Z,74.40
2018-06-25T22:29:59.139Z,74.50
2018-06-25T22:32:28.081Z,74.70
2018-06-25T22:34:57.442Z,74.30
2018-06-25T22:37:26.532Z,74.30
2018-06-25T22:39:55.252Z,75.10
2018-06-25T22:42:25.809Z,75.30
2018-06-25T22:44:54.958Z,75.50
2018-06-25T22:47:24.044Z,76.10
2018-06-25T22:49:55.202Z,75.30
2018-06-25T22:52:24.185Z,74.60
2018-06-25T22:54:53.049Z,74.50
2018-06-25T22:57:22.036Z,76.20
2018-06-25T22:59:51.069Z,74.70
2018-06-25T23:02:20.129Z,74.30
2018-06-25T23:04:49.374Z,74.50
2018-06-25T23:09:47.150Z,74.20
2018-06-25T23:12:16.258Z,74.10
2018-06-25T23:14:57.926Z,74.60
2018-06-25T23:17:26.883Z,74.50
2018-06-25T23:19:56.023Z,74.80
2018-06-25T23:22:24.851Z,75.10
2018-06-25T23:24:54.159Z,75.30
2018-06-25T23:27:23.169Z,75.90
2018-06-25T23:29:52.189Z,75.90
2018-06-25T23:32:21.184Z,75.10
2018-06-25T23:34:50.091Z,74.50
2018-06-25T23:37:18.930Z,74.30
2018-06-25T23:39:59.237Z,75.30
2018-06-25T23:42:28.279Z,75.60
2018-06-25T23:44:57.067Z,76.50
2018-06-25T23:47:25.998Z,76.60
2018-06-25T23:49:54.885Z,76.40
2018-06-25T23:52:23.685Z,76.20
2018-06-25T23:54:52.643Z,75.70
2018-06-25T23:57:21.646Z,75.60
2018-06-25T23:59:50.588Z,75.50
